Terminal Aerodrome Forecast
Issued by NWS Cleveland, OH

Home | Current Version | Previous Version | Graphics & Text | Print | Product List | Glossary On
Versions: 1 2 3 4 5 6 7 8 9 10 11 12 13 14 15 16 17 18 19 20 21 22
000
FTUS41 KCLE 300900 AAA
TAFYNG
TAF AMD
KYNG 300945Z 3010/3106 31012G22KT 4SM -SHSN BR SCT006 OVC012
      TEMPO 3010/3013 1SM -SHSN OVC006
     FM301600 32014G22KT P6SM -SHSN SCT015 OVC025
     FM302000 30008KT P6SM SCT025 OVC035=

USA.gov is the U.S. government's official web portal to all federal, state and local government web resources and services.